createdAt,value
2022-09-11T00:00:00.000Z,3.74
2022-09-11T00:15:00.000Z,1.58
2022-09-11T00:30:00.000Z,3.52
2022-09-11T00:45:00.000Z,3.84
2022-09-11T01:00:00.000Z,1.93
2022-09-11T01:15:00.000Z,3.13
2022-09-11T01:30:00.000Z,3.75
2022-09-11T01:45:00.000Z,4.32
2022-09-11T02:00:00.000Z,4.35
2022-09-11T02:15:00.000Z,3.77
2022-09-11T02:30:00.000Z,4.25
2022-09-11T02:45:00.000Z,4.05
2022-09-11T03:00:00.000Z,6.72
2022-09-11T03:15:00.000Z,7.82
2022-09-11T03:30:00.000Z,6.78
2022-09-11T03:45:00.000Z,6.79
2022-09-11T04:00:00.000Z,4.76
2022-09-11T04:15:00.000Z,5.75
2022-09-11T04:30:00.000Z,6.69
2022-09-11T04:45:00.000Z,4.76
2022-09-11T05:00:00.000Z,4.18
2022-09-11T05:15:00.000Z,3.75
2022-09-11T05:30:00.000Z,4.54
2022-09-11T05:45:00.000Z,5.98
2022-09-11T06:00:00.000Z,6.93
2022-09-11T06:15:00.000Z,6.27
2022-09-11T06:30:00.000Z,4.41
2022-09-11T06:45:00.000Z,5.72
2022-09-11T07:00:00.000Z,5.74
2022-09-11T07:15:00.000Z,4.19
2022-09-11T07:30:00.000Z,4.29
2022-09-11T07:45:00.000Z,4.53
2022-09-11T08:00:00.000Z,6.29
2022-09-11T08:15:00.000Z,5.62
2022-09-11T08:30:00.000Z,5.34
2022-09-11T08:45:00.000Z,6.13
2022-09-11T09:00:00.000Z,6.8
2022-09-11T09:15:00.000Z,7.21
2022-09-11T09:30:00.000Z,5.62
2022-09-11T09:45:00.000Z,4.49
2022-09-11T10:00:00.000Z,5.08
2022-09-11T10:15:00.000Z,4.8
2022-09-11T10:30:00.000Z,5.65
2022-09-11T10:45:00.000Z,4.6
2022-09-11T11:00:00.000Z,5.09
2022-09-11T11:15:00.000Z,5
2022-09-11T11:30:00.000Z,6.13
2022-09-11T11:45:00.000Z,5.19
2022-09-11T12:00:00.000Z,4.21
2022-09-11T12:15:00.000Z,4.99
2022-09-11T12:30:00.000Z,4.94
2022-09-11T12:45:00.000Z,5.55
2022-09-11T13:00:00.000Z,4.58
2022-09-11T13:15:00.000Z,4.18
2022-09-11T13:30:00.000Z,5.22
2022-09-11T13:45:00.000Z,5.4
2022-09-11T14:00:00.000Z,7.08
2022-09-11T14:15:00.000Z,4.99
2022-09-11T14:30:00.000Z,4.56
2022-09-11T14:45:00.000Z,5.66
2022-09-11T15:00:00.000Z,5.02
2022-09-11T15:15:00.000Z,5.99
2022-09-11T15:30:00.000Z,6.53
2022-09-11T15:45:00.000Z,4.27
2022-09-11T16:00:00.000Z,4.29
2022-09-11T16:15:00.000Z,3.81
2022-09-11T16:30:00.000Z,3.31
2022-09-11T16:45:00.000Z,3.39
2022-09-11T17:00:00.000Z,3.05
2022-09-11T17:15:00.000Z,3.93
2022-09-11T17:30:00.000Z,3.55
2022-09-11T17:45:00.000Z,4.06
2022-09-11T18:00:00.000Z,6.21
2022-09-11T18:15:00.000Z,6.71
2022-09-11T18:30:00.000Z,6.94
2022-09-11T18:45:00.000Z,7.18
2022-09-11T19:00:00.000Z,7
2022-09-11T19:15:00.000Z,6.95
2022-09-11T19:30:00.000Z,7.05
2022-09-11T19:45:00.000Z,7.02
2022-09-11T20:00:00.000Z,7.16
2022-09-11T20:15:00.000Z,6.78
2022-09-11T20:30:00.000Z,5.46
2022-09-11T20:45:00.000Z,5.78
2022-09-11T21:00:00.000Z,5.53
2022-09-11T21:15:00.000Z,4.76
2022-09-11T21:30:00.000Z,4.46
2022-09-11T21:45:00.000Z,4.65
2022-09-11T22:00:00.000Z,4.52
2022-09-11T22:15:00.000Z,4.32
2022-09-11T22:30:00.000Z,4.34
2022-09-11T22:45:00.000Z,4.24
2022-09-11T23:00:00.000Z,4.22
2022-09-11T23:15:00.000Z,4.25
2022-09-11T23:30:00.000Z,3.61
2022-09-11T23:45:00.000Z,4.11
